Time;durP1;ratioP1;P1;durP2;ratioP2;P2;SDS_P1;SDS_P2;PMS_P1;PMS_P2;Temp;Humidity;BMP_temperature;BMP_pressure;BME280_temperature;BME280_humidity;BME280_pressure;Samples;Min_cycle;Max_cycle;Signal;HPM_P1;HPM_P2
2021/08/29 00:00:44;;;;;;;11.22;10.32;;;;;;;16.19;72.06;100344.72;1713109;82;21159;-66
2021/08/29 00:03:10;;;;;;;9.63;8.93;;;;;;;16.18;72.09;100345.75;1708958;83;21044;-67
2021/08/29 00:05:36;;;;;;;6.47;5.97;;;;;;;16.19;71.99;100352.78;1716279;82;21047;-66
2021/08/29 00:08:02;;;;;;;10.05;9.30;;;;;;;16.19;71.51;100351.44;1671216;84;21097;-66
2021/08/29 00:10:28;;;;;;;6.70;5.60;;;;;;;16.21;71.04;100348.81;1672384;84;21069;-66
2021/08/29 00:12:54;;;;;;;5.05;4.75;;;;;;;16.28;70.38;100351.44;1717399;82;20999;-66
2021/08/29 00:15:20;;;;;;;4.55;4.15;;;;;;;16.37;69.49;100346.55;1703675;83;21019;-68
2021/08/29 00:17:47;;;;;;;;;;;;;;;16.47;68.98;100336.09;1706191;81;20983;-66
2021/08/29 00:20:14;;;;;;;4.62;4.33;;;;;;;16.54;68.46;100336.83;1690194;82;20155;-66
2021/08/29 00:22:40;;;;;;;4.83;4.50;;;;;;;16.53;68.23;100335.17;1699756;84;20986;-65
2021/08/29 00:25:09;;;;;;;4.83;4.53;;;;;;;16.58;68.23;100334.51;1700628;83;21003;-65
2021/08/29 00:27:35;;;;;;;8.95;8.15;;;;;;;16.62;67.76;100339.72;1707672;84;21487;-65
2021/08/29 00:30:03;;;;;;;10.38;9.48;;;;;;;16.65;67.60;100350.02;1679031;84;21333;-65
2021/08/29 00:32:29;;;;;;;6.12;5.65;;;;;;;16.65;68.35;100350.86;1661147;85;21067;-66
2021/08/29 00:34:55;;;;;;;5.72;5.33;;;;;;;16.62;68.75;100357.22;1698972;83;21107;-65
2021/08/29 00:37:21;;;;;;;10.30;9.40;;;;;;;16.58;68.56;100352.81;1693839;83;21047;-67
2021/08/29 00:39:47;;;;;;;10.58;9.50;;;;;;;16.54;69.01;100347.59;1704711;83;21037;-66
2021/08/29 00:42:13;;;;;;;5.12;4.83;;;;;;;16.45;68.60;100336.84;1702953;83;20960;-65
2021/08/29 00:44:40;;;;;;;5.03;4.62;;;;;;;16.40;68.20;100321.37;1685769;83;21504;-66
2021/08/29 00:47:09;;;;;;;6.20;5.65;;;;;;;16.42;67.28;100313.08;1611991;88;21611;-66
2021/08/29 00:49:40;;;;;;;6.45;5.97;;;;;;;16.45;66.85;100305.91;1617949;86;21111;-67
2021/08/29 00:52:08;;;;;;;6.22;5.92;;;;;;;16.49;66.65;100312.47;1647222;85;21515;-66
2021/08/29 00:54:37;;;;;;;8.40;7.70;;;;;;;16.57;66.31;100326.13;1602199;86;21071;-66
2021/08/29 00:57:10;;;;;;;8.88;8.15;;;;;;;16.61;65.98;100327.30;1701667;82;20985;-65
2021/08/29 00:59:43;;;;;;;7.47;6.97;;;;;;;16.62;66.01;100335.69;1687373;83;21741;-66
2021/08/29 01:02:15;;;;;;;8.05;7.45;;;;;;;16.59;66.11;100330.22;1683592;83;21069;-66
2021/08/29 01:05:02;;;;;;;7.92;7.33;;;;;;;16.57;66.10;100328.28;1709588;84;21038;-66
2021/08/29 01:07:59;;;;;;;7.15;6.60;;;;;;;16.53;66.09;100310.95;1682740;84;21031;-66
2021/08/29 01:10:52;;;;;;;7.62;7.03;;;;;;;16.49;66.14;100315.97;1679154;84;21500;-66
2021/08/29 01:13:27;;;;;;;9.75;6.97;;;;;;;16.48;66.15;100328.30;1668620;85;21076;-66
2021/08/29 01:15:57;;;;;;;7.20;6.33;;;;;;;16.47;66.29;100319.95;1669738;84;21078;-67
2021/08/29 01:18:26;;;;;;;10.18;7.10;;;;;;;16.41;66.45;100315.48;1670388;84;21072;-67
2021/08/29 01:21:00;;;;;;;9.03;7.50;;;;;;;16.33;66.74;100324.16;1690043;83;21542;-66
2021/08/29 01:23:30;;;;;;;7.90;7.08;;;;;;;16.24;67.05;100315.29;1677954;83;21030;-64
2021/08/29 01:26:18;;;;;;;8.98;7.15;;;;;;;16.15;67.46;100306.70;1678098;83;21290;-66
2021/08/29 01:29:04;;;;;;;7.53;5.67;;;;;;;16.09;67.54;100312.45;1664229;84;21062;-66
2021/08/29 01:31:35;;;;;;;6.67;5.92;;;;;;;16.05;67.88;100322.02;1657008;86;21062;-66
2021/08/29 01:34:07;;;;;;;4.92;4.62;;;;;;;16.00;67.91;100331.27;1633471;86;21167;-65
2021/08/29 01:36:39;;;;;;;6.67;6.10;;;;;;;15.94;68.68;100346.43;1640369;86;21007;-65
2021/08/29 01:39:08;;;;;;;6.83;6.20;;;;;;;15.94;68.68;100346.43;1662147;86;21011;-66
2021/08/29 01:42:30;;;;;;;6.85;6.25;;;;;;;15.97;68.59;100333.05;1792508;78;22936;-64
2021/08/29 01:44:58;;;;;;;7.12;6.40;;;;;;;15.91;68.83;100321.86;1747013;80;21053;-65
2021/08/29 01:47:24;;;;;;;7.42;5.95;;;;;;;15.88;68.89;100329.02;1733450;81;21009;-65
2021/08/29 01:49:52;;;;;;;7.00;6.40;;;;;;;15.89;69.16;100330.14;1733563;81;21033;-65
2021/08/29 01:52:19;;;;;;;3.70;3.30;;;;;;;15.88;69.13;100328.52;1728749;81;21060;-65
2021/08/29 01:55:04;;;;;;;7.00;6.30;;;;;;;15.82;68.99;100329.39;1639248;86;21154;-65
2021/08/29 01:57:41;;;;;;;7.05;6.53;;;;;;;15.81;69.08;100329.11;1642078;84;21086;-66
2021/08/29 02:00:11;;;;;;;4.72;4.45;;;;;;;15.82;69.25;100328.05;1669306;84;21076;-65
2021/08/29 02:02:40;;;;;;;5.92;5.42;;;;;;;15.84;69.12;100325.98;1668304;84;21537;-65
2021/08/29 02:05:08;;;;;;;5.78;5.00;;;;;;;15.87;69.02;100327.39;1658380;85;20990;-65
2021/08/29 02:07:51;;;;;;;4.97;4.62;;;;;;;15.87;69.03;100326.86;1644578;84;20994;-75
2021/08/29 02:10:26;;;;;;;5.37;4.97;;;;;;;15.83;69.41;100329.70;1669514;84;21029;-75
2021/08/29 02:13:05;;;;;;;7.37;6.00;;;;;;;15.78;69.52;100320.66;1636924;84;20988;-75
2021/08/29 02:15:43;;;;;;;5.10;4.70;;;;;;;15.78;69.49;100322.01;1632182;86;21556;-74
2021/08/29 02:18:12;;;;;;;4.15;3.67;;;;;;;15.75;69.64;100326.79;1629068;86;21526;-76
2021/08/29 02:20:43;;;;;;;5.78;5.25;;;;;;;15.80;69.76;100340.08;1630255;86;21076;-74
2021/08/29 02:23:13;;;;;;;9.10;8.25;;;;;;;15.80;69.76;100340.08;1623442;85;21589;-76
2021/08/29 02:25:39;;;;;;;6.55;5.97;;;;;;;15.78;70.24;100343.51;1679081;84;21018;-74
2021/08/29 02:28:06;;;;;;;11.00;9.48;;;;;;;15.78;70.24;100343.51;1678558;84;21534;-73
2021/08/29 02:30:32;;;;;;;;;;;;;;;15.74;70.56;100344.47;1681837;84;21048;-75
2021/08/29 02:33:01;;;;;;;5.80;5.22;;;;;;;15.73;70.63;100341.47;1672248;84;20169;-74
2021/08/29 02:35:29;;;;;;;6.05;4.12;;;;;;;15.73;70.48;100344.16;1678169;84;21152;-74
2021/08/29 02:37:59;;;;;;;4.33;4.03;;;;;;;15.78;70.18;100344.85;1674190;84;21068;-74
2021/08/29 02:40:29;;;;;;;6.78;5.35;;;;;;;15.80;70.05;100338.73;1651399;85;21084;-75
2021/08/29 02:42:55;;;;;;;4.58;4.17;;;;;;;15.78;70.07;100324.16;1668908;84;21062;-75
2021/08/29 02:45:22;;;;;;;6.75;5.03;;;;;;;15.78;70.07;100324.16;1622729;86;21614;-74
2021/08/29 02:47:50;;;;;;;6.90;4.60;;;;;;;15.80;69.98;100330.67;1639199;86;21038;-75
2021/08/29 02:50:19;;;;;;;3.90;3.60;;;;;;;15.81;69.88;100330.45;1639620;86;21008;-75
2021/08/29 02:52:50;;;;;;;3.50;3.20;;;;;;;15.85;69.71;100337.02;1639463;86;21041;-75
2021/08/29 02:55:19;;;;;;;5.03;3.60;;;;;;;15.89;69.60;100336.05;1637224;86;21078;-73
2021/08/29 02:57:51;;;;;;;2.37;1.47;;;;;;;15.91;69.53;100329.40;1648237;86;21038;-74
2021/08/29 03:00:36;;;;;;;1.50;1.40;;;;;;;15.92;69.36;100329.70;1629534;86;21588;-75
2021/08/29 03:03:04;;;;;;;4.08;1.45;;;;;;;15.96;68.99;100337.62;1610509;87;21096;-74
2021/08/29 03:05:32;;;;;;;6.33;1.72;;;;;;;15.96;68.99;100337.62;1610831;87;21561;-75
2021/08/29 03:07:59;;;;;;;2.30;2.10;;;;;;;16.01;68.84;100336.97;1612555;88;21540;-74
2021/08/29 03:10:26;;;;;;;2.50;2.05;;;;;;;16.11;68.57;100339.13;1612243;87;21034;-74
2021/08/29 03:12:53;;;;;;;1.57;1.50;;;;;;;16.19;68.41;100340.69;1658266;84;21058;-75
2021/08/29 03:15:33;;;;;;;1.80;1.22;;;;;;;16.24;68.21;100338.15;1676116;84;21065;-74
2021/08/29 03:18:02;;;;;;;1.77;0.80;;;;;;;16.23;68.07;100332.45;1649812;84;21060;-75
2021/08/29 03:20:31;;;;;;;1.92;1.82;;;;;;;16.24;67.71;100325.52;1644900;84;21021;-75
2021/08/29 03:22:58;;;;;;;1.82;1.07;;;;;;;16.28;67.43;100327.23;1651120;85;20970;-73
2021/08/29 03:25:25;;;;;;;1.20;0.82;;;;;;;16.28;67.43;100327.23;1671293;84;21661;-74
2021/08/29 03:27:51;;;;;;;1.47;1.37;;;;;;;16.35;67.37;100327.97;1676875;84;21076;-75
2021/08/29 03:30:18;;;;;;;2.95;2.40;;;;;;;16.38;67.23;100319.97;1675841;84;21002;-75
2021/08/29 03:32:45;;;;;;;3.60;2.17;;;;;;;16.39;67.20;100326.97;1669254;84;21072;-75
2021/08/29 03:35:16;;;;;;;2.35;1.92;;;;;;;16.36;67.35;100328.25;1674609;84;21564;-74
2021/08/29 03:37:47;;;;;;;3.40;2.42;;;;;;;16.34;67.35;100333.05;1664510;84;21141;-75
2021/08/29 03:40:15;;;;;;;3.47;2.72;;;;;;;16.33;67.42;100335.42;1677045;84;21572;-75
2021/08/29 03:42:44;;;;;;;2.20;2.10;;;;;;;16.31;67.58;100325.41;1681766;84;21041;-75
2021/08/29 03:45:11;;;;;;;2.80;2.55;;;;;;;16.34;67.45;100327.13;1682330;83;21022;-73
2021/08/29 03:47:39;;;;;;;2.90;2.37;;;;;;;16.38;67.43;100325.34;1677470;83;21043;-74
2021/08/29 03:50:09;;;;;;;3.17;2.98;;;;;;;16.38;67.48;100334.76;1679796;83;21034;-74
2021/08/29 03:52:38;;;;;;;4.30;3.90;;;;;;;16.34;67.64;100339.23;1684386;83;21020;-72
2021/08/29 03:55:13;;;;;;;8.45;3.62;;;;;;;16.32;67.92;100336.48;1669200;84;21569;-74
2021/08/29 03:57:40;;;;;;;3.98;2.95;;;;;;;16.30;67.72;100331.86;1675533;84;21068;-74
2021/08/29 04:00:07;;;;;;;;;;;;;;;16.34;67.60;100323.62;1681820;84;21061;-75
2021/08/29 04:02:36;;;;;;;3.85;2.67;;;;;;;16.40;67.29;100313.30;1648631;86;20442;-75
2021/08/29 04:05:04;;;;;;;4.53;2.85;;;;;;;16.37;67.30;100312.43;1621676;87;21636;-73
2021/08/29 04:07:34;;;;;;;3.98;2.70;;;;;;;16.35;67.40;100310.48;1632014;86;20987;-74
2021/08/29 04:10:04;;;;;;;4.15;3.00;;;;;;;16.32;67.46;100299.64;1637570;86;21549;-75
2021/08/29 04:12:33;;;;;;;5.50;2.80;;;;;;;16.30;67.48;100290.98;1665452;84;21336;-74
2021/08/29 04:15:23;;;;;;;3.22;2.15;;;;;;;16.25;67.59;100280.61;1663114;84;21005;-75
2021/08/29 04:17:50;;;;;;;4.35;2.42;;;;;;;16.22;67.74;100281.05;1675944;84;21096;-74
2021/08/29 04:20:17;;;;;;;4.65;2.00;;;;;;;16.24;67.74;100289.74;1675511;84;21001;-76
2021/08/29 04:22:45;;;;;;;2.02;1.45;;;;;;;16.29;67.72;100281.79;1656745;84;21028;-74
2021/08/29 04:25:13;;;;;;;3.77;1.87;;;;;;;16.31;67.20;100273.81;1662932;84;20974;-75
2021/08/29 04:27:41;;;;;;;5.42;1.95;;;;;;;16.31;67.20;100273.81;1660460;84;21056;-74
2021/08/29 04:30:08;;;;;;;1.98;1.50;;;;;;;16.28;67.29;100272.91;1662165;84;21010;-75
2021/08/29 04:32:41;;;;;;;4.65;1.50;;;;;;;16.28;67.29;100272.91;1667880;84;20970;-75
2021/08/29 04:35:09;;;;;;;2.30;1.37;;;;;;;16.36;67.40;100282.53;1645534;85;21485;-75
2021/08/29 04:37:37;;;;;;;2.35;0.85;;;;;;;16.46;67.29;100277.44;1643456;85;21069;-75
2021/08/29 04:40:08;;;;;;;2.17;1.30;;;;;;;16.53;66.93;100287.55;1643430;85;21084;-75
2021/08/29 04:42:36;;;;;;;4.12;1.55;;;;;;;16.58;66.92;100285.54;1648877;85;21513;-75
2021/08/29 04:45:02;;;;;;;;;;;;;;;16.65;66.74;100282.73;1655117;84;21739;-74
2021/08/29 04:47:29;;;;;;;3.02;1.95;;;;;;;16.70;66.67;100277.49;1638359;86;20455;-74
2021/08/29 04:49:57;;;;;;;2.67;2.12;;;;;;;16.60;66.73;100271.86;1637172;86;21058;-74
2021/08/29 04:52:25;;;;;;;;;;;;;;;16.74;66.38;100297.00;1625758;86;21132;-74
2021/08/29 04:54:52;;;;;;;3.90;2.92;;;;;;;16.85;66.22;100302.66;1630257;86;20172;-74
2021/08/29 04:57:19;;;;;;;2.77;1.77;;;;;;;16.88;66.30;100290.91;1636114;86;21098;-75
2021/08/29 04:59:45;;;;;;;2.75;2.02;;;;;;;16.92;65.95;100281.85;1628912;87;21066;-74
2021/08/29 05:02:11;;;;;;;3.20;1.98;;;;;;;16.97;65.85;100270.38;1652645;85;21078;-75
2021/08/29 05:04:37;;;;;;;7.40;2.22;;;;;;;17.04;65.61;100268.39;1654052;85;21012;-74
2021/08/29 05:07:07;;;;;;;3.20;1.82;;;;;;;17.13;65.36;100262.43;1651763;85;21078;-76
2021/08/29 05:09:34;;;;;;;3.40;2.58;;;;;;;17.58;64.65;100270.45;1660412;85;21056;-75
2021/08/29 05:12:04;;;;;;;8.20;2.67;;;;;;;17.94;63.71;100256.39;1664065;84;21170;-75
2021/08/29 05:14:30;;;;;;;2.55;2.35;;;;;;;18.26;62.63;100249.19;1648693;85;21102;-77
2021/08/29 05:16:56;;;;;;;4.05;2.05;;;;;;;18.23;61.90;100221.34;1662205;85;21072;-74
2021/08/29 05:19:24;;;;;;;2.12;2.02;;;;;;;18.76;61.12;100264.66;1668298;85;21017;-77
2021/08/29 05:21:52;;;;;;;2.80;2.60;;;;;;;19.04;59.98;100262.96;1672012;85;21399;-75
2021/08/29 05:24:23;;;;;;;2.12;1.92;;;;;;;19.29;59.27;100263.06;1663757;85;20981;-75
2021/08/29 05:26:54;;;;;;;8.20;2.45;;;;;;;19.75;58.59;100244.81;1659401;85;21592;-75
2021/08/29 05:29:22;;;;;;;2.75;2.20;;;;;;;20.32;56.40;100231.37;1652740;85;21016;-75
2021/08/29 05:31:48;;;;;;;1.90;1.22;;;;;;;20.57;55.79;100234.87;1647794;85;21040;-74
2021/08/29 05:34:16;;;;;;;2.92;1.87;;;;;;;20.62;54.86;100230.86;1669643;85;21121;-74
2021/08/29 05:36:42;;;;;;;;;;;;;;;20.54;55.00;100231.31;1667002;85;21590;-76
2021/08/29 05:39:10;;;;;;;2.02;1.77;;;;;;;20.38;55.31;100239.81;1663136;85;20218;-75
2021/08/29 05:41:38;;;;;;;3.70;2.67;;;;;;;20.12;55.81;100236.05;1654881;85;21050;-75
2021/08/29 05:44:24;;;;;;;4.92;2.30;;;;;;;19.97;56.34;100238.05;1663036;85;22243;-76
2021/08/29 05:46:50;;;;;;;4.47;1.98;;;;;;;19.83;56.85;100247.06;1632286;86;21076;-75
2021/08/29 05:49:16;;;;;;;7.75;2.35;;;;;;;19.76;57.23;100241.02;1615354;87;21197;-76
2021/08/29 05:51:43;;;;;;;4.40;2.33;;;;;;;19.83;57.48;100233.02;1660378;85;21058;-75
2021/08/29 05:54:10;;;;;;;6.40;2.50;;;;;;;19.95;56.98;100227.47;1661349;85;21181;-75
2021/08/29 05:56:36;;;;;;;5.00;2.08;;;;;;;20.18;56.30;100223.66;1671285;85;21003;-76
2021/08/29 05:59:03;;;;;;;11.08;2.22;;;;;;;20.48;55.66;100228.28;1667638;85;21145;-80
2021/08/29 06:01:30;;;;;;;8.03;3.45;;;;;;;20.92;55.10;100222.70;1651498;85;21483;-74
2021/08/29 06:03:57;;;;;;;6.55;2.35;;;;;;;21.31;54.14;100217.00;1664133;85;21014;-75
2021/08/29 06:06:33;;;;;;;7.92;2.05;;;;;;;21.66;53.20;100222.34;1628433;85;21132;-73
2021/08/29 06:09:00;;;;;;;7.28;2.20;;;;;;;22.00;52.01;100212.42;1641536;86;21151;-74
2021/08/29 06:11:28;;;;;;;6.22;1.87;;;;;;;22.11;51.08;100214.08;1649379;86;21121;-74
2021/08/29 06:13:58;;;;;;;6.80;2.52;;;;;;;22.16;50.72;100208.67;1630315;87;21105;-74
2021/08/29 06:16:25;;;;;;;4.05;1.57;;;;;;;22.27;50.37;100202.20;1618539;87;21047;-73
2021/08/29 06:18:52;;;;;;;3.33;0.85;;;;;;;22.31;50.42;100201.93;1595075;88;21049;-75
2021/08/29 06:21:20;;;;;;;2.98;0.50;;;;;;;22.22;50.00;100204.88;1643719;86;21610;-73
2021/08/29 06:23:46;;;;;;;4.05;0.82;;;;;;;21.95;50.31;100204.55;1614951;87;21604;-74
2021/08/29 06:26:20;;;;;;;7.03;1.45;;;;;;;21.67;50.68;100209.07;1610232;87;21045;-74
2021/08/29 06:29:01;;;;;;;1.67;0.90;;;;;;;21.38;51.49;100202.68;1641179;86;21530;-74
2021/08/29 06:31:46;;;;;;;1.55;0.80;;;;;;;21.06;51.92;100202.23;1616385;87;21199;-74
2021/08/29 06:34:21;;;;;;;0.82;0.57;;;;;;;20.81;52.64;100200.14;1637533;86;21144;-74
2021/08/29 06:36:48;;;;;;;4.45;0.90;;;;;;;20.61;52.84;100201.62;1641158;86;21055;-74
2021/08/29 06:39:14;;;;;;;1.00;0.45;;;;;;;20.37;53.42;100203.00;1640706;86;20987;-74
2021/08/29 06:41:43;;;;;;;2.17;0.45;;;;;;;20.16;54.06;100200.64;1618141;87;21149;-73
2021/08/29 06:44:12;;;;;;;1.95;1.25;;;;;;;19.99;54.65;100193.42;1630492;86;21138;-75
2021/08/29 06:46:57;;;;;;;0.28;0.28;;;;;;;19.91;54.86;100195.24;1644130;86;21016;-74
2021/08/29 06:49:42;;;;;;;1.90;0.40;;;;;;;19.82;55.25;100190.81;1642984;86;21053;-74
2021/08/29 06:52:12;;;;;;;0.70;0.40;;;;;;;19.83;55.59;100193.81;1627615;86;21132;-74
2021/08/29 06:55:00;;;;;;;1.80;0.47;;;;;;;19.94;55.28;100189.30;1619861;87;21129;-74
2021/08/29 06:57:31;;;;;;;2.27;0.95;;;;;;;19.97;55.39;100190.16;1623867;86;21500;-73
2021/08/29 07:00:00;;;;;;;1.67;0.50;;;;;;;19.98;55.25;100190.42;1646052;86;21078;-75
2021/08/29 07:02:29;;;;;;;1.40;0.47;;;;;;;20.13;54.98;100191.12;1645840;86;21189;-74
2021/08/29 07:04:56;;;;;;;1.30;0.47;;;;;;;20.32;54.43;100190.22;1611625;88;21057;-76
2021/08/29 07:07:23;;;;;;;2.17;0.40;;;;;;;20.51;53.60;100181.21;1621674;86;21079;-76
2021/08/29 07:10:05;;;;;;;0.75;0.75;;;;;;;20.73;53.29;100185.19;1656585;85;21003;-74
2021/08/29 07:12:32;;;;;;;0.30;0.30;;;;;;;20.93;51.10;100184.52;1629602;86;21560;-75
2021/08/29 07:15:09;;;;;;;0.60;0.33;;;;;;;21.02;50.78;100182.67;1628365;86;21033;-74
2021/08/29 07:17:40;;;;;;;0.20;0.20;;;;;;;21.05;50.47;100169.42;1640820;86;22285;-76
2021/08/29 07:20:07;;;;;;;1.05;0.20;;;;;;;20.99;50.46;100180.77;1619588;87;21070;-75
2021/08/29 07:22:42;;;;;;;1.02;0.30;;;;;;;20.87;50.63;100163.91;1625347;86;21155;-76
2021/08/29 07:25:27;;;;;;;2.05;0.40;;;;;;;20.75;51.01;100167.33;1605020;87;21083;-67
2021/08/29 07:28:11;;;;;;;2.65;0.60;;;;;;;20.63;51.37;100148.56;1604009;88;21080;-68
2021/08/29 07:30:56;;;;;;;0.40;0.40;;;;;;;20.52;51.44;100153.59;1604851;88;21097;-68
2021/08/29 07:33:23;;;;;;;2.80;0.42;;;;;;;20.33;51.49;100155.87;1606410;88;21065;-74
2021/08/29 07:35:51;;;;;;;5.35;0.85;;;;;;;20.19;52.01;100163.58;1641892;86;21139;-77
2021/08/29 07:38:22;;;;;;;0.60;0.60;;;;;;;20.11;52.43;100161.34;1649282;85;21058;-74
2021/08/29 07:40:49;;;;;;;0.78;0.50;;;;;;;20.09;52.67;100156.73;1613705;87;21003;-74
2021/08/29 07:43:15;;;;;;;1.62;0.60;;;;;;;20.13;52.89;100151.89;1640727;86;21043;-75
2021/08/29 07:45:42;;;;;;;1.75;0.82;;;;;;;20.18;52.88;100147.08;1638673;86;21147;-76
2021/08/29 07:48:08;;;;;;;;;;;;;;;20.22;52.94;100146.30;1653728;86;21036;-75
2021/08/29 07:50:35;;;;;;;0.80;0.72;;;;;;;20.30;52.80;100145.55;1643942;86;20108;-76
2021/08/29 07:53:01;;;;;;;1.22;0.62;;;;;;;20.32;52.76;100142.86;1645409;86;21096;-78
2021/08/29 07:55:30;;;;;;;0.85;0.75;;;;;;;20.42;52.59;100144.31;1643411;86;21095;-78
2021/08/29 07:58:14;;;;;;;0.40;0.40;;;;;;;20.59;52.45;100149.59;1638398;86;21098;-77
2021/08/29 08:00:40;;;;;;;;;;;;;;;20.76;52.03;100135.12;1630549;86;21099;-78
2021/08/29 08:03:08;;;;;;;1.45;0.70;;;;;;;20.87;51.82;100132.75;1611401;87;20165;-75
2021/08/29 08:05:52;;;;;;;1.35;0.57;;;;;;;20.85;51.91;100128.66;1626987;86;21620;-75
2021/08/29 08:08:26;;;;;;;0.95;0.62;;;;;;;20.88;51.74;100124.08;1604984;86;20990;-76
2021/08/29 08:11:11;;;;;;;1.67;0.60;;;;;;;20.95;51.76;100131.44;1638224;84;21272;-76
2021/08/29 08:13:39;;;;;;;0.72;0.50;;;;;;;21.13;51.60;100133.68;1587404;87;21089;-74
2021/08/29 08:16:06;;;;;;;0.60;0.60;;;;;;;21.38;51.11;100125.41;1613992;87;21081;-75
2021/08/29 08:18:35;;;;;;;0.90;0.68;;;;;;;20.59;50.41;99963.30;1611402;87;21074;-76
2021/08/29 08:21:01;;;;;;;0.40;0.40;;;;;;;21.72;49.85;100123.66;1612594;87;21089;-75
2021/08/29 08:23:32;;;;;;;1.37;0.60;;;;;;;21.83;49.48;100107.67;1610823;87;21142;-75
2021/08/29 08:26:02;;;;;;;1.95;0.57;;;;;;;21.94;49.44;100101.70;1588262;87;21161;-76
2021/08/29 08:28:38;;;;;;;1.47;0.50;;;;;;;22.07;49.66;100102.52;1579299;89;21166;-76
2021/08/29 08:31:23;;;;;;;0.60;0.53;;;;;;;22.24;49.53;100090.59;1613349;87;21085;-75
2021/08/29 08:34:05;;;;;;;6.10;5.55;;;;;;;22.38;49.20;100083.56;1606157;87;21049;-77
2021/08/29 08:36:49;;;;;;;4.72;4.28;;;;;;;22.51;49.25;100080.84;1613694;87;21104;-74
2021/08/29 08:39:32;;;;;;;0.93;0.62;;;;;;;22.57;49.08;100074.30;1595497;87;21534;-65
2021/08/29 08:42:06;;;;;;;0.82;0.82;;;;;;;22.54;49.16;100083.79;1612525;87;21054;-74
2021/08/29 08:44:48;;;;;;;0.80;0.80;;;;;;;22.51;48.77;100088.98;1567891;88;21661;-68
2021/08/29 08:47:34;;;;;;;0.88;0.88;;;;;;;22.42;49.23;100079.77;1617019;86;21155;-78
2021/08/29 08:50:21;;;;;;;;;;;;;;;22.38;49.66;100064.55;1555572;91;21087;-75
2021/08/29 08:53:06;;;;;;;2.25;0.90;;;;;;;22.41;49.99;100071.33;1559287;91;20164;-76
2021/08/29 08:55:52;;;;;;;2.05;0.98;;;;;;;22.43;49.97;100071.88;1607061;85;21074;-73
2021/08/29 08:58:40;;;;;;;1.30;0.85;;;;;;;22.45;49.97;100056.11;1643740;85;21056;-75
2021/08/29 09:01:25;;;;;;;0.95;0.82;;;;;;;22.45;50.47;100046.61;1652133;85;21050;-73
2021/08/29 09:04:10;;;;;;;1.52;1.30;;;;;;;22.51;50.53;100050.97;1648411;85;21080;-76
2021/08/29 09:06:39;;;;;;;0.98;0.90;;;;;;;22.59;50.41;100043.60;1656871;85;21056;-75
2021/08/29 09:09:10;;;;;;;1.17;0.85;;;;;;;22.62;50.66;100039.51;1655738;85;21072;-73
2021/08/29 09:11:37;;;;;;;3.35;1.22;;;;;;;22.68;50.62;100032.44;1667935;84;21034;-74
2021/08/29 09:14:04;;;;;;;1.30;1.10;;;;;;;22.71;50.57;100028.34;1656178;85;21548;-74
2021/08/29 09:16:32;;;;;;;2.02;1.50;;;;;;;22.73;50.86;100017.49;1675006;84;21058;-74
2021/08/29 09:19:03;;;;;;;0.95;0.95;;;;;;;22.84;50.88;100010.65;1679353;84;21385;-75
2021/08/29 09:21:37;;;;;;;1.12;1.05;;;;;;;22.93;50.80;100020.66;1679493;85;21460;-73
2021/08/29 09:24:15;;;;;;;1.17;1.07;;;;;;;23.00;50.40;100025.80;1669306;84;21029;-75
2021/08/29 09:26:50;;;;;;;1.05;1.00;;;;;;;22.98;50.63;100017.13;1662665;84;21091;-74
2021/08/29 09:29:24;;;;;;;1.15;1.10;;;;;;;22.98;50.70;100014.93;1672358;84;21011;-75
2021/08/29 09:31:52;;;;;;;3.60;1.27;;;;;;;23.02;50.77;100007.31;1681738;84;20989;-76
2021/08/29 09:34:22;;;;;;;1.25;0.90;;;;;;;23.09;51.14;100002.42;1679267;84;21081;-75
2021/08/29 09:36:59;;;;;;;1.65;1.12;;;;;;;23.20;50.59;100004.52;1677930;84;21076;-72
2021/08/29 09:39:29;;;;;;;4.10;1.67;;;;;;;23.27;50.53;100008.30;1678781;84;21150;-76
2021/08/29 09:42:05;;;;;;;2.27;1.50;;;;;;;23.32;50.18;100000.13;1667596;84;21038;-72
2021/08/29 09:44:42;;;;;;;1.12;1.00;;;;;;;23.34;50.36;99996.56;1680875;83;21026;-74
2021/08/29 09:47:14;;;;;;;2.20;2.10;;;;;;;23.37;50.18;99999.27;1677212;84;21036;-74
2021/08/29 09:50:06;;;;;;;1.80;1.70;;;;;;;23.39;49.41;100003.87;1678184;84;21059;-74
2021/08/29 09:52:38;;;;;;;6.42;1.30;;;;;;;23.39;49.40;99992.44;1678322;84;21042;-73
2021/08/29 09:55:10;;;;;;;1.90;1.35;;;;;;;23.41;49.58;99985.36;1678131;84;21081;-75
2021/08/29 09:57:44;;;;;;;2.02;1.47;;;;;;;23.46;49.72;99977.98;1624145;84;21048;-75
2021/08/29 10:00:12;;;;;;;2.17;1.98;;;;;;;23.52;49.64;99970.59;1680214;84;21535;-73
2021/08/29 10:02:43;;;;;;;2.37;1.67;;;;;;;23.54;49.56;99979.28;1679209;84;21066;-74
2021/08/29 10:05:19;;;;;;;1.67;1.57;;;;;;;23.57;48.90;99977.92;1681719;84;21109;-75
2021/08/29 10:07:58;;;;;;;1.87;1.77;;;;;;;23.58;49.08;99964.01;1681467;84;20983;-73
2021/08/29 10:10:28;;;;;;;;;;;;;;;23.65;48.97;99974.02;1661878;84;21012;-74
2021/08/29 10:12:58;;;;;;;2.80;1.70;;;;;;;23.70;49.15;99971.83;1641716;86;20105;-74
2021/08/29 10:15:25;;;;;;;2.35;2.20;;;;;;;23.71;49.08;99943.50;1615986;87;21585;-75
2021/08/29 10:18:11;;;;;;;2.42;2.25;;;;;;;23.80;48.98;99951.34;1627298;87;21059;-74
2021/08/29 10:20:58;;;;;;;6.33;2.37;;;;;;;23.85;49.16;99939.06;1641799;86;21033;-74
2021/08/29 10:23:38;;;;;;;2.92;1.90;;;;;;;23.90;49.13;99958.08;1630719;86;21526;-74
2021/08/29 10:26:11;;;;;;;2.33;2.20;;;;;;;23.93;49.44;99951.80;1642780;86;21099;-73
2021/08/29 10:28:50;;;;;;;3.22;2.52;;;;;;;23.97;49.38;99944.11;1655251;85;20975;-74
2021/08/29 10:32:03;;;;;;;4.75;1.67;;;;;;;24.03;49.29;99934.79;1651363;85;21035;-74
2021/08/29 10:34:32;;;;;;;2.15;2.05;;;;;;;24.09;49.57;99931.47;1650924;85;21059;-73
2021/08/29 10:37:01;;;;;;;3.87;2.62;;;;;;;24.13;49.44;99942.06;1636769;85;21067;-75
2021/08/29 10:39:46;;;;;;;2.15;2.02;;;;;;;24.18;49.38;99937.91;1616344;88;21522;-74
2021/08/29 10:42:38;;;;;;;;;;;;;;;24.21;49.35;99940.06;1622073;87;21047;-74
2021/08/29 10:45:26;;;;;;;2.92;2.30;;;;;;;24.26;49.47;99922.84;1644677;85;20204;-74
2021/08/29 10:48:00;;;;;;;3.30;2.42;;;;;;;24.32;49.66;99931.77;1657722;85;21012;-75
2021/08/29 10:50:48;;;;;;;4.90;2.90;;;;;;;24.43;49.32;99919.65;1629877;85;21037;-74
2021/08/29 10:53:42;;;;;;;10.08;3.17;;;;;;;24.52;49.16;99925.30;1645256;85;21233;-73
2021/08/29 10:56:34;;;;;;;2.75;2.52;;;;;;;24.55;48.81;99920.65;1648872;85;21031;-74
2021/08/29 10:59:13;;;;;;;5.00;2.60;;;;;;;24.55;48.99;99912.47;1656031;85;21008;-74
2021/08/29 11:01:47;;;;;;;5.40;2.08;;;;;;;24.59;48.99;99905.34;1637310;85;20988;-74
2021/08/29 11:04:41;;;;;;;3.70;3.00;;;;;;;24.64;49.06;99903.36;1646591;85;20980;-75
2021/08/29 11:07:12;;;;;;;2.22;2.12;;;;;;;24.72;49.03;99890.19;1654708;85;21121;-76
2021/08/29 11:09:44;;;;;;;2.58;2.45;;;;;;;24.79;49.05;99902.87;1654482;85;21076;-74
2021/08/29 11:12:19;;;;;;;4.28;3.40;;;;;;;24.84;48.84;99891.91;1659277;85;21033;-74
2021/08/29 11:14:53;;;;;;;;;;;;;;;24.84;49.13;99889.18;1655136;85;21004;-75
2021/08/29 11:17:29;;;;;;;3.12;2.98;;;;;;;24.88;49.02;99891.56;1653551;85;20116;-75
2021/08/29 11:20:10;;;;;;;3.10;3.00;;;;;;;24.84;48.87;99894.63;1656023;86;21167;-73
2021/08/29 11:22:50;;;;;;;6.65;3.00;;;;;;;24.83;49.09;99875.31;1657192;85;21045;-75
2021/08/29 11:25:34;;;;;;;5.53;2.52;;;;;;;24.86;49.19;99874.70;1657251;85;21545;-74
2021/08/29 11:28:08;;;;;;;3.52;3.33;;;;;;;24.91;49.16;99865.09;1604042;86;21008;-73
2021/08/29 11:30:55;;;;;;;4.65;3.02;;;;;;;24.98;49.27;99858.72;1642874;85;20981;-74
2021/08/29 11:33:26;;;;;;;7.10;4.78;;;;;;;25.07;49.23;99846.57;1636965;85;20968;-73
2021/08/29 11:35:54;;;;;;;3.65;3.45;;;;;;;25.16;49.08;99868.53;1641068;85;21060;-74
2021/08/29 11:38:41;;;;;;;5.65;4.12;;;;;;;25.24;48.57;99863.78;1642458;85;21373;-75
2021/08/29 11:41:17;;;;;;;4.30;4.00;;;;;;;25.27;48.34;99857.74;1657506;85;21004;-76
2021/08/29 11:43:49;;;;;;;4.12;3.80;;;;;;;25.30;48.47;99857.16;1660226;86;21060;-75
2021/08/29 11:46:22;;;;;;;4.55;4.15;;;;;;;25.35;48.40;99837.16;1664536;85;21080;-74
2021/08/29 11:49:01;;;;;;;4.25;3.87;;;;;;;25.41;48.23;99832.69;1655297;86;21745;-74
2021/08/29 11:51:34;;;;;;;11.83;4.12;;;;;;;25.49;48.24;99833.11;1659551;85;21154;-74
2021/08/29 11:54:05;;;;;;;8.73;4.30;;;;;;;25.57;48.01;99829.12;1662009;85;21135;-75